ESPE

Vidsel Air Base Airport

Vidsel, Sweden
METAR ESPE 190850Z 11003KT 2400 +DZ VV004 08/08 Q0999
Observed Flight Rules
Sep-19 @ 08:50 UTC (15 minutes ago) Instrument Flight Rules
Wind Visibility Clouds Conditions
110° at 3 knots 2,398 meters
  • Vertical visibility at 400' AGL
  • Heavy Drizzle
Temperatures Readings
Current 8°C / 46°F
Dewpoint 8°C / 46°F
Humidity 100%
Altimeter 29.5" Hg
Pressure 999 hPa
Elevation 182
METAR ESPE 190850Z 11003KT 2400 +DZ VV004 08/08 Q0999
Observed Flight Rules
Sep-19 @ 08:50 UTC
(15 minutes ago)
LIFR
Wind Visibility
110° at 3 knots 2,398 meters
Clouds
  • Vertical visibility at 400' AGL
Conditions
  • Heavy Drizzle
Temperature Dewpoint
8°C / 46°F 8°C / 46°F
Humidity Altimeter Pressure
100% 29.5" Hg 999 hPa